Map

Track Data

SID SEASON NUMBER BASIN SUBBASIN NAME ISO_TIME NATURE LAT LON WMO_WIND WMO_PRES WMO_AGENCY TRACK_TYPE DIST2LAND LANDFALL IFLAG USA_AGENCY USA_ATCF_ID USA_LAT USA_LON USA_RECORD USA_STATUS USA_WIND USA_PRES USA_SSHS USA_R34_NE USA_R34_SE USA_R34_SW USA_R34_NW USA_R50_NE USA_R50_SE USA_R50_SW USA_R50_NW USA_R64_NE USA_R64_SE USA_R64_SW USA_R64_NW USA_POCI USA_ROCI USA_RMW USA_EYE TOKYO_LAT TOKYO_LON TOKYO_GRADE TOKYO_WIND TOKYO_PRES TOKYO_R50_DIR TOKYO_R50_LONG TOKYO_R50_SHORT TOKYO_R30_DIR TOKYO_R30_LONG TOKYO_R30_SHORT TOKYO_LAND CMA_LAT CMA_LON CMA_CAT CMA_WIND CMA_PRES HKO_LAT HKO_LON HKO_CAT HKO_WIND HKO_PRES NEWDELHI_LAT NEWDELHI_LON NEWDELHI_GRADE NEWDELHI_WIND NEWDELHI_PRES NEWDELHI_CI NEWDELHI_DP NEWDELHI_POCI REUNION_LAT REUNION_LON REUNION_TYPE REUNION_WIND REUNION_PRES REUNION_TNUM REUNION_CI REUNION_RMW REUNION_R34_NE REUNION_R34_SE REUNION_R34_SW REUNION_R34_NW REUNION_R50_NE REUNION_R50_SE REUNION_R50_SW REUNION_R50_NW REUNION_R64_NE REUNION_R64_SE REUNION_R64_SW REUNION_R64_NW BOM_LAT BOM_LON BOM_TYPE BOM_WIND BOM_PRES BOM_TNUM BOM_CI BOM_RMW BOM_R34_NE BOM_R34_SE BOM_R34_SW BOM_R34_NW BOM_R50_NE BOM_R50_SE BOM_R50_SW BOM_R50_NW BOM_R64_NE BOM_R64_SE BOM_R64_SW BOM_R64_NW BOM_ROCI BOM_POCI BOM_EYE BOM_POS_METHOD BOM_PRES_METHOD NADI_LAT NADI_LON NADI_CAT NADI_WIND NADI_PRES WELLINGTON_LAT WELLINGTON_LON WELLINGTON_WIND WELLINGTON_PRES DS824_LAT DS824_LON DS824_STAGE DS824_WIND DS824_PRES TD9636_LAT TD9636_LON TD9636_STAGE TD9636_WIND TD9636_PRES TD9635_LAT TD9635_LON TD9635_WIND TD9635_PRES TD9635_ROCI NEUMANN_LAT NEUMANN_LON NEUMANN_CLASS NEUMANN_WIND NEUMANN_PRES MLC_LAT MLC_LON MLC_CLASS MLC_WIND MLC_PRES USA_GUST BOM_GUST BOM_GUST_PER REUNION_GUST REUNION_GUST_PER USA_SEAHGT USA_SEARAD_NE USA_SEARAD_SE USA_SEARAD_SW USA_SEARAD_NW STORM_SPEED STORM_DIR
1991320N06171 1991 95 WP MM YURI 1991-11-16 00:00:00 NR 5.50000 171.000 main 1925 1919 O_____________ jtwc_wp WP301991 5.50000 171.000 15 -1 3 288
1991320N06171 1991 95 WP MM YURI 1991-11-16 03:00:00 NR 5.55001 170.850 main 1928 1915 P_____________ WP301991 5.55001 170.850 15 -1 3 289
1991320N06171 1991 95 WP MM YURI 1991-11-16 06:00:00 NR 5.60000 170.700 main 1915 1909 O_____________ jtwc_wp WP301991 5.60000 170.700 15 -1 3 289
1991320N06171 1991 95 WP MM YURI 1991-11-16 09:00:00 NR 5.65000 170.550 main 1909 1905 P_____________ WP301991 5.65000 170.550 15 -1 3 289
1991320N06171 1991 95 WP MM YURI 1991-11-16 12:00:00 NR 5.70000 170.400 main 1905 1899 O_____________ jtwc_wp WP301991 5.70000 170.400 15 -1 3 290
1991320N06171 1991 95 WP MM YURI 1991-11-16 15:00:00 NR 5.75749 170.258 main 1908 1896 P_____________ WP301991 5.75749 170.258 15 -1 3 289
1991320N06171 1991 95 WP MM YURI 1991-11-16 18:00:00 NR 5.80000 170.100 main 1896 1884 O_____________ jtwc_wp WP301991 5.80000 170.100 15 -1 4 278
1991320N06171 1991 95 WP MM YURI 1991-11-16 21:00:00 NR 5.80750 169.908 main 1884 1872 P_____________ WP301991 5.80750 169.908 15 -1 4 270
1991320N06171 1991 95 WP MM YURI 1991-11-17 00:00:00 NR 5.80000 169.700 main 1872 1861 O_____________ jtwc_wp WP301991 5.80000 169.700 15 -1 4 269
1991320N06171 1991 95 WP MM YURI 1991-11-17 03:00:00 NR 5.79999 169.500 main 1861 1849 P_____________ WP301991 5.79999 169.500 15 -1 4 270
1991320N06171 1991 95 WP MM YURI 1991-11-17 06:00:00 NR 5.80000 169.300 main 1849 1838 O_____________ jtwc_wp WP301991 5.80000 169.300 15 -1 4 270
1991320N06171 1991 95 WP MM YURI 1991-11-17 09:00:00 NR 5.79998 169.107 main 1838 1827 P_____________ WP301991 5.79998 169.107 17 -1 4 270
1991320N06171 1991 95 WP MM YURI 1991-11-17 12:00:00 NR 5.80000 168.900 main 1827 1816 O_____________ jtwc_wp WP301991 5.80000 168.900 20 -1 4 271
1991320N06171 1991 95 WP MM YURI 1991-11-17 15:00:00 NR 5.80749 168.665 main 1816 1800 P_____________ WP301991 5.80749 168.665 22 -1 5 270
1991320N06171 1991 95 WP MM YURI 1991-11-17 18:00:00 NR 5.80000 168.400 main 1800 1785 O_____________ jtwc_wp WP301991 5.80000 168.400 25 -1 6 264
1991320N06171 1991 95 WP MM YURI 1991-11-17 21:00:00 NR 5.75001 168.100 main 1785 1760 P_____________ WP301991 5.75001 168.100 22 -1 6 260
1991320N06171 1991 95 WP MM YURI 1991-11-18 00:00:00 NR 5.70000 167.800 main 1760 1746 O_____________ jtwc_wp WP301991 5.70000 167.800 20 -1 6 265
1991320N06171 1991 95 WP MM YURI 1991-11-18 03:00:00 NR 5.69999 167.535 main 1746 1736 P_____________ WP301991 5.69999 167.535 22 -1 5 270
1991320N06171 1991 95 WP MM YURI 1991-11-18 06:00:00 NR 5.70000 167.300 main 1736 1727 O_____________ jtwc_wp WP301991 5.70000 167.300 25 -1 4 264
1991320N06171 1991 95 WP MM YURI 1991-11-18 09:00:00 NR 5.65748 167.100 main 1727 1708 P_____________ WP301991 5.65748 167.100 25 -1 4 256
1991320N06171 1991 95 WP MM YURI 1991-11-18 12:00:00 NR 5.60000 166.900 main 1708 1689 O_____________ jtwc_wp WP301991 5.60000 166.900 25 -1 5 255
1991320N06171 1991 95 WP MM YURI 1991-11-18 15:00:00 NR 5.54250 166.657 main 1689 1677 P_____________ WP301991 5.54250 166.657 25 -1 5 259
1991320N06171 1991 95 WP MM YURI 1991-11-18 18:00:00 NR 5.50000 166.400 main 1677 1668 O_____________ jtwc_wp WP301991 5.50000 166.400 25 -1 5 265
1991320N06171 1991 95 WP MM YURI 1991-11-18 21:00:00 NR 5.50000 166.143 main 1664 1657 P_____________ WP301991 5.50000 166.143 25 -1 5 270
1991320N06171 1991 95 WP MM YURI 1991-11-19 00:00:00 NR 5.50000 165.900 main 1657 1649 O_____________ jtwc_wp WP301991 5.50000 165.900 25 -1 4 264
1991320N06171 1991 95 WP MM YURI 1991-11-19 03:00:00 NR 5.45748 165.700 main 1649 1632 P_____________ WP301991 5.45748 165.700 25 -1 4 256
1991320N06171 1991 95 WP MM YURI 1991-11-19 06:00:00 NR 5.40000 165.500 main 1632 1625 O_____________ jtwc_wp WP301991 5.40000 165.500 25 -1 5 256
1991320N06171 1991 95 WP MM YURI 1991-11-19 09:00:00 NR 5.35000 165.258 main 1625 1604 P_____________ WP301991 5.35000 165.258 25 -1 5 259
1991320N06171 1991 95 WP MM YURI 1991-11-19 12:00:00 NR 5.30000 165.000 main 1604 1596 O_____________ jtwc_wp WP301991 5.30000 165.000 25 -1 5 259
1991320N06171 1991 95 WP MM YURI 1991-11-19 15:00:00 NR 5.25000 164.743 main 1591 1572 P_____________ WP301991 5.25000 164.743 25 -1 5 259
1991320N06171 1991 95 WP MM YURI 1991-11-19 18:00:00 NR 5.20000 164.500 main 1572 1563 O_____________ jtwc_wp WP301991 5.20000 164.500 25 -1 5 257
1991320N06171 1991 95 WP MM YURI 1991-11-19 21:00:00 NR 5.14999 164.293 main 1553 1544 P_____________ WP301991 5.14999 164.293 25 -1 4 256
1991320N06171 1991 95 WP MM YURI 1991-11-20 00:00:00 NR 5.10000 164.100 main 1544 1535 O_____________ jtwc_wp WP301991 5.10000 164.100 25 -1 4 256
1991320N06171 1991 95 WP MM YURI 1991-11-20 03:00:00 NR 5.05000 163.893 main 1535 1517 P_____________ WP301991 5.05000 163.893 22 -1 4 256
1991320N06171 1991 95 WP MM YURI 1991-11-20 06:00:00 NR 5.00000 163.700 main 1517 1509 O_____________ jtwc_wp WP301991 5.00000 163.700 20 -1 4 256
1991320N06171 1991 95 WP MM YURI 1991-11-20 09:00:00 NR 4.95750 163.527 main 1509 1494 P_____________ WP301991 4.95750 163.527 20 -1 3 251
1991320N06171 1991 95 WP MM YURI 1991-11-20 12:00:00 NR 4.90000 163.400 main 1494 1479 O_____________ jtwc_wp WP301991 4.90000 163.400 20 -1 3 234
1991320N06171 1991 95 WP MM YURI 1991-11-20 15:00:00 NR 4.80749 163.320 main 1479 1469 P_____________ WP301991 4.80749 163.320 20 -1 2 207
1991320N06171 1991 95 WP MM YURI 1991-11-20 18:00:00 NR 4.70000 163.300 main 1469 1459 O_____________ jtwc_wp WP301991 4.70000 163.300 20 -1 2 173
1991320N06171 1991 95 WP MM YURI 1991-11-20 21:00:00 NR 4.59250 163.328 main 1459 1452 P_____________ WP301991 4.59250 163.328 20 -1 2 153
1991320N06171 1991 95 WP MM YURI 1991-11-21 00:00:00 NR 4.50000 163.400 main 1452 1446 O_____________ jtwc_wp WP301991 4.50000 163.400 20 -1 2 136
1991320N06171 1991 95 WP MM YURI 1991-11-21 03:00:00 NR 4.44249 163.477 main 1446 1446 P_____________ WP301991 4.44249 163.477 22 -1 2 117
1991320N06171 1991 95 WP MM YURI 1991-11-21 06:00:00 NR 4.40000 163.600 main 1450 1450 O_____________ jtwc_wp WP301991 4.40000 163.600 25 -1 3 108
1991320N06171 1991 95 WP MM YURI 1991-11-21 09:00:00 NR 4.34999 163.770 main 1448 1448 P_____________ WP301991 4.34999 163.770 25 -1 4 104
1991320N06171 1991 95 WP MM YURI 1991-11-21 12:00:00 NR 4.30000 164.000 main 1457 1457 O_____________ jtwc_wp WP301991 4.30000 164.000 25 -1 5 101
1991320N06171 1991 95 WP MM YURI 1991-11-21 15:00:00 NR 4.24999 164.278 main 1461 1461 P_____________ WP301991 4.24999 164.278 25 -1 6 99
1991320N06171 1991 95 WP MM YURI 1991-11-21 18:00:00 NR 4.20000 164.600 main 1473 1469 O_____________ jtwc_wp WP301991 4.20000 164.600 25 -1 7 100
1991320N06171 1991 95 WP MM YURI 1991-11-21 21:00:00 NR 4.13499 164.943 main 1472 1472 P_____________ WP301991 4.13499 164.943 25 -1 9 95
1991320N06171 1991 95 WP MM YURI 1991-11-22 00:00:00 TS 4.12000 165.460 1004 tokyo main 1494 1494 OO____________ jtwc_wp WP301991 4.10000 165.300 25 -1 4.20000 166.100 2 1004 0 0 0 9 86
1991320N06171 1991 95 WP MM YURI 1991-11-22 03:00:00 TS 4.19333 165.794 main 1517 1517 PP____________ WP301991 4.13500 165.665 25 -1 4.31000 166.053 2 1003 0 0 6 73
1991320N06171 1991 95 WP MM YURI 1991-11-22 06:00:00 TS 4.28571 166.000 1002 tokyo main 1535 1535 OO____________ jtwc_wp WP301991 4.20000 166.000 25 -1 4.40000 166.000 2 1002 0 0 0 4 64
1991320N06171 1991 95 WP MM YURI 1991-11-22 09:00:00 TS 4.34625 166.115 main 1539 1539 PP____________ WP301991 4.23499 166.288 25 -1 4.45750 165.943 2 1002 0 0 2 53
1991320N06171 1991 95 WP MM YURI 1991-11-22 12:00:00 TS 4.41111 166.167 1002 tokyo main 1554 1554 OO_O__________ jtwc_wp WP301991 4.30000 166.500 25 -1 4.50000 165.900 2 1002 0 0 0 4.50000 165.900 TD 25 1000 2 30
1991320N06171 1991 95 WP MM YURI 1991-11-22 15:00:00 TS 4.50399 166.206 main 1564 1564 PP_P__________ WP301991 4.43499 166.660 25 -1 4.55000 165.900 2 1002 0 0 4.55000 165.912 TD 27 1000 2 0
1991320N06171 1991 95 WP MM YURI 1991-11-22 18:00:00 TS 4.57500 166.192 1002 tokyo main 1575 1571 OOOO__________ jtwc_wp WP301991 4.60000 166.700 25 -1 4.60000 165.900 2 1002 0 0 0 4.30000 166.200 1 29 1000 4.60000 165.900 TD 30 1000 2 323
1991320N06171 1991 95 WP MM YURI 1991-11-22 21:00:00 TS 4.62607 166.116 main 1571 1571 PPPP__________ WP301991 4.75000 166.595 27 -1 4.65000 165.850 2 1001 0 0 4.28250 166.220 1 29 999 4.65000 165.850 TD 30 1000 2 303
1991320N06171 1991 95 WP MM YURI 1991-11-23 00:00:00 TS 4.67333 166.040 1000 tokyo main 1577 1577 OOOO__________ jtwc_wp WP301991 4.90000 166.400 30 -1 4.70000 165.800 2 1000 0 0 0 4.30000 166.200 1 29 998 4.70000 165.800 TD 30 1000 2 306
1991320N06171 1991 95 WP MM YURI 1991-11-23 03:00:00 TS 4.72813 165.981 main 1577 1577 PPPP__________ WP301991 5.05000 166.207 30 -1 4.74250 165.800 2 998 0 0 4.37750 166.115 1 33 996 4.74250 165.800 TD 32 997 2 318
1991320N06171 1991 95 WP MM YURI 1991-11-23 06:00:00 TS 4.82500 165.900 35 996 tokyo main 1583 1583 OOOO__________ jtwc_wp WP301991 5.20000 166.000 30 -1 4.80000 165.800 3 35 996 0 9 30 30 0 4.50000 166.000 2 38 995 4.80000 165.800 TS 35 995 3 322
1991320N06171 1991 95 WP MM YURI 1991-11-23 09:00:00 TS 4.94062 165.813 main 1590 1590 PPPP__________ WP301991 5.35749 165.807 32 -1 4.88500 165.765 3 37 994 0 9 40 40 4.63499 165.915 2 38 992 4.88500 165.765 TS 37 992 3 322
1991320N06171 1991 95 WP MM YURI 1991-11-23 12:00:00 TS 5.07500 165.700 40 992 tokyo main 1607 1603 OOOO__________ jtwc_wp WP301991 5.50000 165.600 35 0 5.00000 165.700 3 40 992 0 9 50 50 0 4.80000 165.800 2 38 990 5.00000 165.700 TS 40 990 4 317
1991320N06171 1991 95 WP MM YURI 1991-11-23 15:00:00 TS 5.22312 165.553 main 1614 1610 PPPP__________ WP301991 5.59999 165.365 37 0 5.15000 165.608 3 42 991 0 9 65 65 5.00001 165.615 2 38 990 5.14249 165.622 TS 42 987 4 313
1991320N06171 1991 95 WP MM YURI 1991-11-23 18:00:00 TS 5.37500 165.375 45 990 tokyo main 1628 1625 OOOO__________ jtwc_wp WP301991 5.70000 165.100 40 0 5.30000 165.500 3 45 990 0 9 80 80 0 5.20000 165.400 2 38 990 5.30000 165.500 TS 45 985 4 309
1991320N06171 1991 95 WP MM YURI 1991-11-23 21:00:00 TS 5.49369 165.220 main 1632 1629 PPPP__________ WP301991 5.84248 164.815 42 0 5.37741 165.467 3 50 985 0 9 100 100 5.32746 165.230 2 38 990 5.42742 165.367 TS 47 982 5 305
1991320N06171 1991 95 WP MM YURI 1991-11-24 00:00:00 TS 5.65000 164.975 55 980 tokyo main 1646 1637 OOOO__________ jtwc_wp WP301991 6.00000 164.500 45 0 5.50000 165.300 4 55 980 9 30 30 9 120 120 0 5.50000 165.000 2 38 990 5.60000 165.100 STS 50 980 8 304
1991320N06171 1991 95 WP MM YURI 1991-11-24 03:00:00 TS 5.91558 164.582 main 1648 1644 PPPP__________ WP301991 6.15742 164.187 47 0 5.79248 164.848 4 57 977 9 30 30 9 160 135 5.81238 164.682 2 43 987 5.90004 164.610 STS 50 980 11 301
1991320N06171 1991 95 WP MM YURI 1991-11-24 06:00:00 TS 6.20000 164.050 60 975 tokyo main 1657 1636 OOOO__________ jtwc_wp WP301991 6.30000 163.800 50 0 6.10000 164.200 4 60 975 9 30 30 1 200 150 0 6.20000 164.200 3 48 985 6.20000 164.000 STS 50 980 13 294
1991320N06171 1991 95 WP MM YURI 1991-11-24 09:00:00 TS 6.41875 163.423 main 1630 1612 PPPP__________ WP301991 6.39994 163.302 52 0 6.26504 163.472 4 62 972 9 40 40 1 200 150 6.64511 163.495 3 53 980 6.36490 163.422 STS 55 975 14 287
1991320N06171 1991 95 WP MM YURI 1991-11-24 12:00:00 TS 6.60000 162.725 65 970 tokyo main 1606 1574 OOOO__________ jtwc_wp WP301991 6.50000 162.700 55 0 6.40000 162.700 5 65 970 9 50 50 1 200 150 0 7.00000 162.700 3 58 975 6.50000 162.800 STS 60 970 14 284
1991320N06171 1991 95 WP MM YURI 1991-11-24 15:00:00 TS 6.75552 162.036 main 1575 1542 PPPP__________ WP301991 6.63492 162.037 60 0 6.58487 161.992 5 67 967 9 55 55 1 200 150 7.10236 161.992 3 63 972 6.69993 162.122 STS 62 967 14 282
1991320N06171 1991 95 WP MM YURI 1991-11-24 18:00:00 TS 6.90000 161.325 70 965 tokyo main 1535 1497 OOOO__________ jtwc_wp WP301991 6.80000 161.300 65 1 6.80000 161.300 5 70 965 9 60 60 1 200 150 0 7.10000 161.300 4 68 970 6.90000 161.400 T 65 965 15 282
1991320N06171 1991 95 WP MM YURI 1991-11-24 21:00:00 TS 7.05675 160.601 main 1506 1467 PPPP__________ WP301991 6.98494 160.515 70 1 7.05733 160.615 5 72 962 9 60 60 1 200 150 7.12732 160.615 4 68 970 7.05742 160.657 T 67 962 15 283
1991320N06171 1991 95 WP MM YURI 1991-11-25 00:00:00 TS 7.22500 159.850 75 960 tokyo main 1461 1435 OOOO__________ jtwc_wp WP301991 7.20000 159.700 75 1 7.30000 159.900 5 75 960 9 60 60 1 200 150 0 7.20000 159.900 4 68 970 7.20000 159.900 T 70 960 16 283
1991320N06171 1991 95 WP MM YURI 1991-11-25 03:00:00 TS 7.39736 159.077 main 1435 1407 PPPP__________ WP301991 7.44232 158.907 80 1 7.44989 159.122 5 75 957 9 65 65 1 200 150 7.36990 159.122 4 68 967 7.32734 159.157 T 70 960 16 284
1991320N06171 1991 95 WP MM YURI 1991-11-25 06:00:00 TS 7.60000 158.275 75 955 tokyo main 1407 1381 OOOO__________ jtwc_wp WP301991 7.70000 158.100 85 2 7.60000 158.300 5 75 955 9 70 70 1 200 150 0 7.60000 158.300 4 68 965 7.50000 158.400 T 70 960 17 285
1991320N06171 1991 95 WP MM YURI 1991-11-25 09:00:00 TS 7.84555 157.437 main 1376 1365 PPPP__________ WP301991 7.94992 157.250 90 2 7.82746 157.442 5 77 952 9 75 75 1 200 150 7.82746 157.442 4 72 965 7.77735 157.615 T 72 957 17 288
1991320N06171 1991 95 WP MM YURI 1991-11-25 12:00:00 TS 8.12500 156.600 80 950 tokyo main 1365 1356 OOOO__________ jtwc_wp WP301991 8.20000 156.400 95 2 8.10000 156.600 5 80 950 9 80 80 1 200 150 0 8.10000 156.600 4 77 965 8.10000 156.800 T 75 955 17 290
1991320N06171 1991 95 WP MM YURI 1991-11-25 15:00:00 TS 8.43594 155.822 main 1357 1357 PPPP__________ WP301991 8.45724 155.600 100 3 8.40713 155.857 5 82 947 9 80 80 1 200 150 8.46463 155.858 4 77 960 8.41476 155.972 T 77 952 17 291
1991320N06171 1991 95 WP MM YURI 1991-11-25 18:00:00 TS 8.72500 155.025 85 945 tokyo main 1356 1350 OOOO__________ jtwc_wp WP301991 8.70000 154.800 105 3 8.70000 155.100 5 85 945 9 80 80 1 200 150 0 8.80000 155.100 4 77 955 8.70000 155.100 T 80 950 17 287
1991320N06171 1991 95 WP MM YURI 1991-11-25 21:00:00 TS 8.93491 154.140 main 1347 1342 PPPP__________ WP301991 8.91480 153.965 110 3 8.92243 154.222 5 90 937 9 85 85 1 210 160 8.97243 154.222 4 82 952 8.92998 154.150 T 87 942 18 282
1991320N06171 1991 95 WP MM YURI 1991-11-26 00:00:00 TS 9.10000 153.225 95 930 tokyo main 1346 1342 OOOO__________ jtwc_wp WP301991 9.10000 153.100 115 4 9.10000 153.300 5 95 930 9 90 90 1 220 170 0 9.10000 153.300 5 87 950 9.10000 153.200 ST 95 935 18 280
1991320N06171 1991 95 WP MM YURI 1991-11-26 03:00:00 TS 9.26103 152.334 main 1353 1348 PPPP__________ WP301991 9.25739 152.200 117 4 9.25727 152.400 5 100 922 9 100 100 1 235 185 9.31477 152.400 5 87 950 9.21469 152.335 ST 100 930 18 280
1991320N06171 1991 95 WP MM YURI 1991-11-26 06:00:00 TS 9.40000 151.450 105 915 tokyo main 1357 1347 OOOO__________ jtwc_wp WP301991 9.40000 151.300 120 4 9.40000 151.500 5 105 915 9 110 110 1 250 200 0 9.50000 151.500 5 87 950 9.30000 151.500 SuperT 105 925 18 278
1991320N06171 1991 95 WP MM YURI 1991-11-26 09:00:00 TS 9.50491 150.552 main 1347 1335 PPPP__________ WP301991 9.53484 150.427 122 4 9.54998 150.570 5 107 912 9 115 115 1 250 200 9.54998 150.570 5 92 945 9.38485 150.642 SuperT 107 922 17 277
1991320N06171 1991 95 WP MM YURI 1991-11-26 12:00:00 TS 9.62500 149.700 110 910 tokyo main 1335 1333 OOOO__________ jtwc_wp WP301991 9.70000 149.600 125 4 9.70000 149.700 5 110 910 9 120 120 1 250 200 0 9.60000 149.700 5 97 940 9.50000 149.800 SuperT 110 920 16 280
1991320N06171 1991 95 WP MM YURI 1991-11-26 15:00:00 TS 9.79098 148.938 main 1343 1341 PPPP__________ WP301991 9.92728 148.827 130 4 9.81961 148.977 5 112 905 9 130 130 1 275 220 9.76216 148.970 5 97 935 9.65486 148.977 SuperT 112 917 15 285
1991320N06171 1991 95 WP MM YURI 1991-11-26 18:00:00 TS 10.0250 148.225 115 900 tokyo main 1358 1358 OOOO__________ jtwc_wp WP301991 10.2000 148.100 135 4 10.0000 148.300 5 115 900 9 140 140 1 300 240 0 10.0000 148.300 5 97 930 9.90000 148.200 SuperT 115 915 15 291
1991320N06171 1991 95 WP MM YURI 1991-11-26 21:00:00 TS 10.3230 147.499 main 1389 1389 PPPP__________ WP301991 10.4774 147.377 140 5 10.3050 147.543 5 117 897 9 140 140 1 300 240 10.2549 147.600 5 101 922 10.2548 147.477 SuperT 117 912 16 296
1991320N06171 1991 95 WP MM YURI 1991-11-27 00:00:00 TS 10.7000 146.800 120 895 tokyo main 1434 1434 OOOO__________ jtwc_wp WP301991 10.8000 146.700 145 5 10.7000 146.800 5 120 895 9 140 140 1 300 240 0 10.6000 146.900 6 106 915 10.7000 146.800 SuperT 120 910 16 302
1991320N06171 1991 95 WP MM YURI 1991-11-27 03:00:00 TS 11.1453 146.155 main 1479 1479 PPPP__________ WP301991 11.1771 146.107 147 5 11.1347 146.150 5 120 895 9 140 140 1 300 240 11.0698 146.207 6 106 915 11.1997 146.157 SuperT 117 912 16 306
1991320N06171 1991 95 WP MM YURI 1991-11-27 06:00:00 TS 11.6250 145.500 120 895 tokyo main 1539 1539 OOOO__________ jtwc_wp WP301991 11.6000 145.500 150 5 11.6000 145.500 5 120 895 9 140 140 1 300 240 0 11.6000 145.500 6 106 915 11.7000 145.500 SuperT 115 915 17 305
1991320N06171 1991 95 WP MM YURI 1991-11-27 09:00:00 TS 12.0919 144.754 main 1603 1603 PPPP__________ WP301991 12.0501 144.758 150 5 12.0650 144.757 5 117 897 9 140 140 1 300 240 12.1300 144.743 6 106 915 12.1225 144.757 SuperT 112 917 17 302
1991320N06171 1991 95 WP MM YURI 1991-11-27 12:00:00 TS 12.5250 144.000 115 900 tokyo main 1660 1660 OOOO__________ jtwc_wp WP301991 12.5000 144.000 150 5 12.5000 144.000 5 115 900 9 140 140 1 300 240 0 12.6000 144.000 6 106 915 12.5000 144.000 SuperT 110 920 16 299
1991320N06171 1991 95 WP MM YURI 1991-11-27 15:00:00 TS 12.8711 143.298 main 1719 1712 PPPP__________ WP301991 12.8998 143.327 150 5 12.8424 143.270 5 115 900 9 140 140 1 300 240 12.8998 143.327 6 106 915 12.8424 143.270 SuperT 107 922 15 298
1991320N06171 1991 95 WP MM YURI 1991-11-27 18:00:00 TS 13.2250 142.650 115 900 tokyo main 1730 1727 OOOO__________ jtwc_wp WP301991 13.3000 142.700 150 5 13.2000 142.600 5 115 900 9 140 140 1 300 240 0 13.2000 142.700 6 106 915 13.2000 142.600 SuperT 105 925 15 304
1991320N06171 1991 95 WP MM YURI 1991-11-27 21:00:00 TS 13.6905 142.049 main 1758 1739 PPPP__________ WP301991 13.7499 142.077 147 5 13.6923 142.020 5 112 902 9 140 140 1 300 240 13.6849 142.078 6 106 912 13.6348 142.020 SuperT 105 925 15 310
1991320N06171 1991 95 WP MM YURI 1991-11-28 00:00:00 TS 14.1750 141.500 110 905 tokyo main 1741 1694 OOOO__________ jtwc_wp WP301991 14.2000 141.500 145 5 14.2000 141.500 5 110 905 9 140 140 1 300 240 0 14.2000 141.500 6 106 910 14.1000 141.500 SuperT 105 925 14 311
1991320N06171 1991 95 WP MM YURI 1991-11-28 03:00:00 TS 14.5874 140.970 main 1697 1651 PPPP__________ WP301991 14.5999 140.970 142 5 14.6000 140.970 5 107 907 9 140 140 1 300 240 14.5999 140.962 6 106 910 14.5499 140.977 SuperT 102 927 13 310
1991320N06171 1991 95 WP MM YURI 1991-11-28 06:00:00 TS 15.0000 140.500 105 910 tokyo main 1651 1617 OOOO__________ jtwc_wp WP301991 15.0000 140.500 140 5 15.0000 140.500 5 105 910 9 140 140 1 300 240 0 15.0000 140.500 6 106 910 15.0000 140.500 SuperT 100 930 12 316
1991320N06171 1991 95 WP MM YURI 1991-11-28 09:00:00 TS 15.4674 140.093 main 1619 1594 PPPP__________ WP301991 15.4424 140.062 140 5 15.4924 140.120 5 105 910 9 140 140 1 300 240 15.4924 140.120 6 106 910 15.4424 140.070 SuperT 100 930 12 323
1991320N06171 1991 95 WP MM YURI 1991-11-28 12:00:00 TS 15.9500 139.750 105 910 tokyo main 1599 1569 OOOO__________ jtwc_wp WP301991 15.9000 139.700 140 5 16.0000 139.800 5 105 910 9 140 140 1 300 240 0 16.0000 139.800 6 106 910 15.9000 139.700 SuperT 100 930 11 326
1991320N06171 1991 95 WP MM YURI 1991-11-28 15:00:00 TS 16.4143 139.431 main 1569 1558 PPPP__________ WP301991 16.3499 139.412 137 5 16.4500 139.477 5 102 912 9 140 140 1 300 240 16.4575 139.470 6 106 912 16.4000 139.362 SuperT 97 932 11 329
1991320N06171 1991 95 WP MM YURI 1991-11-28 18:00:00 TS 16.8750 139.175 100 915 tokyo main 1565 1552 OOOO__________ jtwc_wp WP301991 16.8000 139.200 135 4 16.9000 139.200 5 100 915 9 140 140 1 300 240 0 16.9000 139.200 6 106 915 16.9000 139.100 ST 95 935 10 334
1991320N06171 1991 95 WP MM YURI 1991-11-28 21:00:00 TS 17.3412 138.967 main 1559 1553 PPPP__________ WP301991 17.2500 139.012 135 4 17.4075 138.948 5 100 915 9 140 140 1 300 240 17.3499 139.005 6 101 915 17.3574 138.905 ST 95 935 10 341
1991320N06171 1991 95 WP MM YURI 1991-11-29 00:00:00 TS 17.8000 138.850 100 915 tokyo main 1569 1559 OOOO__________ jtwc_wp WP301991 17.7000 138.900 135 4 17.9000 138.800 5 100 915 9 140 140 3 300 240 0 17.8000 138.900 5 97 915 17.8000 138.800 ST 95 935 9 351
1991320N06171 1991 95 WP MM YURI 1991-11-29 03:00:00 TS 18.2431 138.819 main 1576 1576 PPPP__________ WP301991 18.1500 138.855 132 4 18.3150 138.805 5 97 917 9 135 135 3 300 240 18.2575 138.862 5 97 917 18.2500 138.755 ST 95 935 9 0
1991320N06171 1991 95 WP MM YURI 1991-11-29 06:00:00 TS 18.6750 138.875 95 920 tokyo main 1602 1563 OOOO__________ jtwc_wp WP301991 18.6000 138.900 130 4 18.7000 138.900 5 95 920 9 130 130 3 300 240 0 18.7000 138.900 5 97 920 18.7000 138.800 ST 95 935 9 9
1991320N06171 1991 95 WP MM YURI 1991-11-29 09:00:00 TS 19.0943 138.955 main 1568 1535 PPPP__________ WP301991 19.0499 138.998 125 4 19.0774 138.963 5 95 922 9 130 130 3 300 240 19.0924 138.955 5 97 922 19.1574 138.905 ST 92 937 9 16
1991320N06171 1991 95 WP MM YURI 1991-11-29 12:00:00 TS 19.5250 139.125 95 925 tokyo main 1535 1503 OOOO__________ jtwc_wp WP301991 19.5000 139.200 120 4 19.5000 139.100 5 95 925 9 130 130 3 300 240 0 19.5000 139.100 5 97 925 19.6000 139.100 ST 90 940 10 24
1991320N06171 1991 95 WP MM YURI 1991-11-29 15:00:00 TS 20.0093 139.392 main 1503 1471 PPPP__________ WP301991 19.9499 139.498 115 4 20.0650 139.355 5 92 927 9 130 130 3 300 240 20.0075 139.355 5 92 932 20.0150 139.363 ST 87 942 11 32
1991320N06171 1991 95 WP MM YURI 1991-11-29 18:00:00 TS 20.4750 139.750 90 930 tokyo main 1477 1460 OOOO__________ jtwc_wp WP301991 20.4000 139.900 110 3 20.6000 139.700 5 90 930 9 130 130 3 300 240 0 20.5000 139.700 5 87 940 20.4000 139.700 ST 85 945 11 39
1991320N06171 1991 95 WP MM YURI 1991-11-29 21:00:00 TS 20.8313 140.101 main 1466 1438 PPPP__________ WP301991 20.8346 140.341 107 3 20.9068 140.019 5 85 937 9 115 115 3 290 240 20.8493 140.019 5 87 942 20.7344 140.026 ST 80 950 11 48
1991320N06171 1991 95 WP MM YURI 1991-11-30 00:00:00 TS 21.2000 140.600 80 945 tokyo main 1441 1416 OOOO__________ jtwc_wp WP301991 21.3000 140.900 105 3 21.2000 140.500 5 80 945 9 100 100 3 280 240 0 21.2000 140.500 5 87 945 21.1000 140.500 T 75 955 14 54
1991320N06171 1991 95 WP MM YURI 1991-11-30 03:00:00 TS 21.6674 141.329 main 1413 1394 PPPP__________ WP301991 21.8196 141.576 102 3 21.6476 141.260 5 77 950 9 100 100 3 280 240 21.6552 141.268 5 82 950 21.5474 141.211 T 72 957 18 56
1991320N06171 1991 95 WP MM YURI 1991-11-30 06:00:00 TS 22.2250 142.225 75 955 tokyo main 1398 1376 OOOO__________ jtwc_wp WP301991 22.4000 142.400 100 3 22.2000 142.200 5 75 955 9 100 100 3 280 240 0 22.2000 142.200 4 77 955 22.1000 142.100 T 70 960 21 55
1991320N06171 1991 95 WP MM YURI 1991-11-30 09:00:00 TS 22.8399 143.156 main 1384 1335 PPPP__________ WP301991 23.0043 143.327 97 3 22.7897 143.171 5 75 957 9 100 100 3 280 240 22.8113 143.091 4 72 960 22.7542 143.034 T 65 965 23 54
1991320N06171 1991 95 WP MM YURI 1991-11-30 12:00:00 TS 23.5500 144.200 75 960 tokyo main 1327 1292 OOOO__________ jtwc_wp WP301991 23.7000 144.400 95 2 23.5000 144.200 5 75 960 9 100 100 3 280 240 0 23.5000 144.100 4 68 965 23.5000 144.100 STS 60 970 25 54
1991320N06171 1991 95 WP MM YURI 1991-11-30 15:00:00 TS 24.3095 145.381 main 1296 1253 PPPP__________ WP301991 24.5049 145.613 92 2 24.3326 145.273 5 72 962 9 95 95 3 290 270 24.1603 145.315 4 68 967 24.2401 145.322 STS 55 972 27 53
1991320N06171 1991 95 WP MM YURI 1991-11-30 18:00:00 TS 25.2067 146.600 70 965 tokyo main 1258 1220 OOOO__________ jtwc_wp WP301991 25.4000 146.900 90 2 25.3000 146.300 5 70 965 9 90 90 9 300 300 0 25.0000 146.600 4 68 970 25.1000 146.600 STS 50 975 29 47
1991320N06171 1991 95 WP MM YURI 1991-11-30 21:00:00 TS 26.2694 147.731 main 1212 1178 PPPP__________ WP301991 26.3117 148.160 87 2 26.3451 147.117 5 67 967 9 90 90 9 300 300 26.2128 147.872 4 68 970 26.1462 147.817 STS 45 980 30 42
1991320N06171 1991 95 WP MM YURI 1991-12-01 00:00:00 TS 27.4231 148.815 65 970 tokyo main 1178 1151 OOOO__________ jtwc_wp WP301991 27.3000 149.400 85 2 27.5000 148.000 5 65 970 9 90 90 9 300 300 0 27.5000 149.000 4 68 970 27.3000 149.000 TS 40 985 29 39
1991320N06171 1991 95 WP MM YURI 1991-12-01 03:00:00 TS 28.5318 149.804 main 1158 1146 PPP___________ WP301991 28.3838 150.609 80 1 28.7406 149.160 5 62 972 9 90 90 9 300 300 28.4711 149.643 4 63 975 TS 29 40
1991320N06171 1991 95 WP MM YURI 1991-12-01 06:00:00 TS 29.6667 150.967 60 975 tokyo main 1155 1155 OOO___________ jtwc_wp WP301991 29.5000 151.800 75 1 30.0000 150.600 4 60 975 9 90 90 9 300 300 0 29.5000 150.500 3 58 980 34 46
1991320N06171 1991 95 WP MM YURI 1991-12-01 09:00:00 TS 30.9028 152.609 main 1208 1208 PPP___________ WP301991 30.5639 153.003 72 1 31.2125 152.383 4 57 977 9 90 90 9 300 300 30.9318 152.441 3 53 982 38 50
1991320N06171 1991 95 WP MM YURI 1991-12-01 12:00:00 TS 32.1091 154.309 55 980 tokyo main 1296 1296 OOO___________ jtwc_wp WP301991 31.6000 154.200 70 1 32.3000 154.200 4 55 980 9 90 90 9 300 300 0 32.3000 154.500 3 48 985 34 49
1991320N06171 1991 95 WP MM YURI 1991-12-01 15:00:00 TS 33.1314 155.639 main 1375 1375 PPP___________ WP301991 32.6097 155.395 70 1 33.2452 155.723 4 980 9 9 33.2784 155.679 3 48 985 28 48
1991320N06171 1991 95 WP MM YURI 1991-12-01 18:00:00 MX 33.9556 156.778 980 tokyo main 1414 1407 OOO___________ jtwc_wp WP301991 33.6000 156.600 70 1 34.0000 157.000 6 980 0 0 0 34.0000 156.600 3 48 985 23 52
1991320N06171 1991 95 WP MM YURI 1991-12-01 21:00:00 MX 34.5491 157.864 main 1416 1403 _PP___________ WP301991 -1 34.5478 157.991 6 978 0 0 34.5505 157.736 3 48 982 21 60
1991320N06171 1991 95 WP MM YURI 1991-12-02 00:00:00 ET 35.0000 159.000 976 tokyo main 1415 1410 _OO___________ -1 35.0000 159.000 6 976 0 0 0 35.0000 159.000 9 48 980 23 65
1991320N06171 1991 95 WP MM YURI 1991-12-02 03:00:00 ET 35.4971 160.368 main 1437 1434 _PP___________ -1 35.4975 160.352 6 976 0 0 35.4967 160.383 9 43 980 26 68
1991320N06171 1991 95 WP MM YURI 1991-12-02 06:00:00 ET 36.0000 162.000 976 tokyo main 1478 1478 _OO___________ -1 36.0000 162.000 6 976 0 0 0 36.0000 162.000 9 38 980 30 71
1991320N06171 1991 95 WP MM YURI 1991-12-02 09:00:00 ET 36.5002 163.926 main 1545 1545 _PP___________ -1 36.5002 163.926 6 976 0 0 36.5002 163.926 9 38 980 34 73
1991320N06171 1991 95 WP MM YURI 1991-12-02 12:00:00 ET 37.0000 166.000 976 tokyo main 1637 1637 _OO___________ -1 37.0000 166.000 6 976 0 0 0 37.0000 166.000 9 38 980 34 73
1991320N06171 1991 95 WP MM YURI 1991-12-02 15:00:00 ET 37.4967 168.003 main 1706 1705 _PP___________ -1 37.4967 168.003 6 974 0 0 37.4967 168.003 9 38 977 33 73
1991320N06171 1991 95 WP MM YURI 1991-12-02 18:00:00 ET 38.0000 170.000 972 tokyo main 1753 1753 _OO___________ -1 38.0000 170.000 6 972 0 0 0 38.0000 170.000 9 38 975 33 73
1991320N06171 1991 95 WP MM YURI 1991-12-02 21:00:00 ET 38.4475 171.956 main 1822 1819 _PP___________ -1 38.4178 171.937 6 972 0 0 38.5067 171.994 9 38 975 33 72
1991320N06171 1991 95 WP MM YURI 1991-12-03 00:00:00 ET 39.0000 174.000 972 tokyo main 1871 1821 _OO___________ -1 39.0000 174.000 6 972 0 0 0 39.0000 174.000 9 38 975 38 67
1991320N06171 1991 95 WP MM YURI 1991-12-03 03:00:00 ET 39.9290 176.494 main 1817 1616 _P____________ -1 39.9290 176.494 6 972 0 0 9 43 62
1991320N06171 1991 95 WP MM YURI 1991-12-03 06:00:00 ET 41.0000 179.000 972 tokyo main 1602 1424 _O____________ -1 41.0000 179.000 6 972 0 0 0 41 59
1991320N06171 1991 95 EP CP YURI 1991-12-03 09:00:00 ET 42.0250 181.120 main 1420 1264 _P____________ -1 42.0250 -178.880 6 974 0 0 36 56
1991320N06171 1991 95 EP CP YURI 1991-12-03 12:00:00 ET 43.0000 183.000 main 1250 _O____________ -1 43.0000 183.000 6 976 0 0 0 34 55

Digital Typhoon Data and Search

About IBTrACS Database

This database is a web-friendly format of International Best Track Archive for Climate Stewardship (IBTrACS), a global best track data archive curated by NOAA dating back to 1842.

Updated: 2021-10-08